Terminal Aerodrome Forecast
Issued by NWS

Home | Current Version | Previous Version | Text Only | Print | Product List | Glossary On
Versions: 1 2 3 4 5 6 7 8 9 10 11 12 13 14 15 16 17 18 19 20 21 22 23 24 25 26 27 28 29 30 31 32 33 34 35 36 37 38 39 40 41 42 43 44 45 46 47 48 49 50
000
FTUS46 KOTX 272333
TAFSFF
TAF
KSFF 272333Z 2800/2824 25004KT P6SM VCSH SCT017 BKN022 OVC035
     FM280200 22006KT 3SM -SN BR SCT011 OVC019
     FM280400 21005KT 1SM -SN OVC008
     FM280900 24005KT 3SM BR BCFG SCT008 OVC013
     FM281700 25005KT P6SM SCT025=

USA.gov is the U.S. government's official web portal to all federal, state and local government web resources and services.